Time;durP1;ratioP1;P1;durP2;ratioP2;P2;SDS_P1;SDS_P2;PMS_P1;PMS_P2;Temp;Humidity;BMP_temperature;BMP_pressure;BME280_temperature;BME280_humidity;BME280_pressure;Samples;Min_cycle;Max_cycle;Signal;HPM_P1;HPM_P2
2022/11/29 00:00:40;;;;;;;63.13;29.58;;;;;;;-0.24;nan;101098.53;5047711;28;20025;-65
2022/11/29 00:03:06;;;;;;;63.70;30.40;;;;;;;-0.26;nan;101086.69;5048419;28;20429;-65
2022/11/29 00:05:34;;;;;;;76.20;31.58;;;;;;;-0.17;nan;101100.56;5047270;28;20021;-65
2022/11/29 00:07:59;;;;;;;68.28;32.38;;;;;;;-0.20;nan;101099.06;5049697;28;20104;-65
2022/11/29 00:10:24;;;;;;;69.15;32.22;;;;;;;-0.22;nan;101095.78;5048282;28;20092;-65
2022/11/29 00:12:50;;;;;;;68.07;31.63;;;;;;;-0.16;nan;101105.59;5054212;28;20636;-66
2022/11/29 00:15:15;;;;;;;69.13;30.88;;;;;;;-0.21;nan;101089.66;5045584;28;20032;-65
2022/11/29 00:17:41;;;;;;;68.50;30.58;;;;;;;-0.20;nan;101093.88;5048184;28;20044;-65
2022/11/29 00:20:09;;;;;;;68.05;32.45;;;;;;;-0.24;nan;101089.94;5049418;28;20577;-65
2022/11/29 00:22:35;;;;;;;78.40;33.90;;;;;;;-0.17;nan;101101.38;5049670;28;20074;-65
2022/11/29 00:25:00;;;;;;;74.80;35.47;;;;;;;-0.18;nan;101091.97;5048123;28;20033;-65
2022/11/29 00:27:25;;;;;;;77.13;34.63;;;;;;;-0.16;nan;101094.44;5047797;28;20036;-66
2022/11/29 00:29:51;;;;;;;80.47;37.55;;;;;;;-0.15;nan;101102.03;5044800;28;21279;-65
2022/11/29 00:32:16;;;;;;;80.10;35.97;;;;;;;-0.16;nan;101100.44;5049143;28;20043;-65
2022/11/29 00:34:41;;;;;;;75.97;35.15;;;;;;;-0.22;nan;101094.03;5047558;28;20029;-64
2022/11/29 00:37:07;;;;;;;71.88;34.28;;;;;;;-0.19;nan;101097.28;5045178;28;20016;-65
2022/11/29 00:39:32;;;;;;;65.60;31.23;;;;;;;-0.20;nan;101096.47;5033490;28;20029;-65
2022/11/29 00:41:57;;;;;;;73.68;33.03;;;;;;;-0.25;nan;101096.88;5049024;28;20025;-65
2022/11/29 00:44:23;;;;;;;71.43;32.22;;;;;;;-0.31;nan;101094.00;5040375;28;20050;-67
2022/11/29 00:46:48;;;;;;;74.82;34.40;;;;;;;-0.33;nan;101091.59;5051172;28;20029;-66
2022/11/29 00:49:14;;;;;;;84.97;38.00;;;;;;;-0.33;nan;101095.94;5041615;28;20031;-66
2022/11/29 00:51:39;;;;;;;84.72;38.08;;;;;;;-0.44;nan;101083.94;5050395;28;20028;-66
2022/11/29 00:54:04;;;;;;;79.18;36.40;;;;;;;-0.40;nan;101079.34;5047941;28;20405;-67
2022/11/29 00:56:30;;;;;;;79.22;35.58;;;;;;;-0.47;nan;101072.09;5046763;28;20538;-66
2022/11/29 00:58:55;;;;;;;76.57;36.08;;;;;;;-0.41;nan;101077.69;5038797;28;20502;-66
2022/11/29 01:01:21;;;;;;;76.07;35.85;;;;;;;-0.37;nan;101077.28;5049868;28;20024;-66
2022/11/29 01:03:47;;;;;;;77.45;35.90;;;;;;;-0.38;nan;101083.41;5043925;28;20112;-67
2022/11/29 01:06:15;;;;;;;81.25;35.78;;;;;;;-0.48;nan;101067.06;5049740;28;20028;-65
2022/11/29 01:08:41;;;;;;;82.67;35.87;;;;;;;-0.49;nan;101061.06;5027475;28;20033;-67
2022/11/29 01:11:11;;;;;;;81.30;35.78;;;;;;;-0.41;nan;101077.69;5042324;28;20113;-67
2022/11/29 01:13:37;;;;;;;78.60;37.50;;;;;;;-0.40;nan;101080.16;5044079;28;20029;-67
2022/11/29 01:16:04;;;;;;;87.55;38.63;;;;;;;-0.43;nan;101078.66;5047262;28;20029;-67
2022/11/29 01:18:30;;;;;;;81.57;36.50;;;;;;;-0.45;nan;101077.97;5044444;28;20029;-67
2022/11/29 01:21:02;;;;;;;83.70;36.60;;;;;;;-0.50;nan;101084.50;5045463;28;20075;-66
2022/11/29 01:23:28;;;;;;;76.45;33.35;;;;;;;-0.54;nan;101070.19;5046403;28;20048;-66
2022/11/29 01:26:02;;;;;;;80.78;35.60;;;;;;;-0.49;nan;101083.53;5033544;28;20055;-66
2022/11/29 01:28:28;;;;;;;82.68;35.25;;;;;;;-0.49;nan;101073.19;5044783;28;20115;-65
2022/11/29 01:30:54;;;;;;;75.50;35.03;;;;;;;-0.62;nan;101054.53;5047774;28;20069;-66
2022/11/29 01:33:19;;;;;;;79.18;34.88;;;;;;;-0.45;nan;101077.97;5038972;28;20021;-66
2022/11/29 01:35:49;;;;;;;71.70;33.47;;;;;;;-0.41;nan;101075.09;5041044;28;20021;-67
2022/11/29 01:38:15;;;;;;;76.97;34.53;;;;;;;-0.44;nan;101063.25;5043239;28;20032;-66
2022/11/29 01:40:41;;;;;;;73.20;32.38;;;;;;;-0.40;nan;101072.38;5041237;28;20033;-66
2022/11/29 01:43:17;;;;;;;71.97;32.67;;;;;;;-0.55;nan;101047.84;5045760;28;20033;-67
2022/11/29 01:45:43;;;;;;;73.07;32.20;;;;;;;-0.46;nan;101059.97;5047849;28;20036;-67
2022/11/29 01:48:11;;;;;;;71.18;31.80;;;;;;;-0.45;nan;101052.09;5029341;28;20017;-67
2022/11/29 01:50:38;;;;;;;76.60;32.22;;;;;;;-0.42;nan;101063.94;5041089;28;20054;-67
2022/11/29 01:53:04;;;;;;;75.63;31.60;;;;;;;-0.41;nan;101067.34;5039455;28;20025;-67
2022/11/29 01:55:30;;;;;;;68.70;30.83;;;;;;;-0.41;nan;101067.34;5039861;28;20356;-67
2022/11/29 01:57:57;;;;;;;66.65;30.60;;;;;;;-0.46;nan;101057.38;5036641;28;20017;-67
2022/11/29 02:00:22;;;;;;;68.70;31.30;;;;;;;-0.38;nan;101061.88;5047368;28;20107;-66
2022/11/29 02:02:56;;;;;;;70.93;30.48;;;;;;;-0.42;nan;101058.75;5039380;28;20601;-66
2022/11/29 02:05:22;;;;;;;70.00;29.75;;;;;;;-0.37;nan;101060.94;5030038;28;20021;-65
2022/11/29 02:07:52;;;;;;;69.18;30.25;;;;;;;-0.50;nan;101043.94;5043525;28;20127;-67
2022/11/29 02:10:19;;;;;;;65.20;28.98;;;;;;;-0.40;nan;101048.28;5040895;28;20025;-66
2022/11/29 02:13:10;;;;;;;67.63;29.25;;;;;;;-0.44;nan;101055.50;5026551;28;20031;-67
2022/11/29 02:16:16;;;;;;;65.40;28.00;;;;;;;-0.46;nan;101060.78;5035283;28;20416;-66
2022/11/29 02:18:52;;;;;;;63.67;27.67;;;;;;;-0.47;nan;101060.94;5040115;28;20112;-67
2022/11/29 02:21:43;;;;;;;60.38;26.67;;;;;;;-0.54;nan;101052.09;5044251;28;20222;-66
2022/11/29 02:24:27;;;;;;;63.38;28.08;;;;;;;-0.46;nan;101059.97;5042161;28;20114;-66
2022/11/29 02:27:17;;;;;;;61.58;26.88;;;;;;;-0.44;nan;101063.25;5039491;28;20037;-66
2022/11/29 02:30:01;;;;;;;62.78;27.05;;;;;;;-0.45;nan;101061.63;5033445;28;20050;-66
2022/11/29 02:33:17;;;;;;;60.95;27.15;;;;;;;-0.47;nan;101066.13;5043516;28;20034;-66
2022/11/29 02:35:45;;;;;;;61.58;27.70;;;;;;;-0.55;nan;101064.22;4984906;28;20056;-67
2022/11/29 02:38:26;;;;;;;59.72;26.67;;;;;;;-0.57;nan;101058.34;4985547;28;20034;-67
2022/11/29 02:41:22;;;;;;;61.88;28.13;;;;;;;-0.56;nan;101062.56;4983964;28;20026;-66
2022/11/29 02:44:26;;;;;;;63.60;28.15;;;;;;;-0.55;nan;101069.38;4971442;28;20039;-66
2022/11/29 02:47:14;;;;;;;55.10;25.33;;;;;;;-0.53;nan;101075.22;4988839;28;20046;-66
2022/11/29 02:50:24;;;;;;;69.63;28.17;;;;;;;-0.49;nan;101070.59;4986592;28;20562;-66
2022/11/29 02:53:17;;;;;;;54.38;25.02;;;;;;;-0.49;nan;101074.00;4964439;28;20612;-66
2022/11/29 02:56:00;;;;;;;56.10;25.58;;;;;;;-0.48;nan;101075.66;4967274;28;20104;-66
2022/11/29 02:58:31;;;;;;;54.83;24.58;;;;;;;-0.47;nan;101079.06;4983326;28;20097;-65
2022/11/29 03:01:25;;;;;;;59.38;24.60;;;;;;;-0.49;nan;101079.19;4981839;28;20062;-66
2022/11/29 03:04:09;;;;;;;57.72;24.00;;;;;;;-0.50;nan;101081.91;4982669;28;20049;-66
2022/11/29 03:07:11;;;;;;;54.63;23.90;;;;;;;-0.49;nan;101080.94;5007842;28;20076;-67
2022/11/29 03:10:12;;;;;;;56.53;24.40;;;;;;;-0.56;nan;101070.31;5042066;28;20029;-66
2022/11/29 03:12:45;;;;;;;58.67;25.08;;;;;;;-0.45;nan;101090.09;5026471;28;20438;-66
2022/11/29 03:15:33;;;;;;;54.58;25.33;;;;;;;-0.50;nan;101085.31;5042678;28;20028;-66
2022/11/29 03:18:26;;;;;;;55.25;24.67;;;;;;;-0.41;nan;101093.22;5045958;28;20025;-66
2022/11/29 03:21:06;;;;;;;53.22;25.17;;;;;;;-0.39;nan;101094.69;5039765;28;20051;-67
2022/11/29 03:23:45;;;;;;;55.92;24.92;;;;;;;-0.38;nan;101093.75;5050266;28;20075;-66
2022/11/29 03:26:20;;;;;;;61.67;24.88;;;;;;;-0.38;nan;101093.75;5043837;28;20033;-67
2022/11/29 03:28:45;;;;;;;57.60;25.25;;;;;;;-0.37;nan;101087.63;5043680;28;20103;-66
2022/11/29 03:31:22;;;;;;;53.88;25.38;;;;;;;-0.47;nan;101082.44;5048625;28;20087;-67
2022/11/29 03:33:59;;;;;;;53.70;24.63;;;;;;;-0.51;nan;101083.66;5040187;28;20368;-66
2022/11/29 03:36:53;;;;;;;51.33;24.55;;;;;;;-0.53;nan;101079.59;5048336;28;20102;-70
2022/11/29 03:39:58;;;;;;;51.55;23.42;;;;;;;-0.62;nan;101078.66;5045671;28;20017;-70
2022/11/29 03:42:24;;;;;;;51.00;23.70;;;;;;;-0.57;nan;101088.59;4988733;28;20254;-70
2022/11/29 03:45:02;;;;;;;53.78;22.88;;;;;;;-0.59;nan;101090.50;4982473;28;20497;-70
2022/11/29 03:47:34;;;;;;;50.50;22.00;;;;;;;-0.69;nan;101080.94;4971153;28;20709;-70
2022/11/29 03:50:06;;;;;;;50.33;22.00;;;;;;;-0.61;nan;101087.22;4982402;28;20510;-69
2022/11/29 03:52:48;;;;;;;43.75;20.35;;;;;;;-0.78;nan;101075.75;4982977;28;20077;-70
2022/11/29 03:55:45;;;;;;;47.88;21.33;;;;;;;-0.62;nan;101095.91;4975114;28;20854;-70
2022/11/29 03:58:45;;;;;;;54.55;23.75;;;;;;;-0.63;nan;101096.88;4978796;28;20050;-70
2022/11/29 04:01:26;;;;;;;53.20;23.10;;;;;;;-0.66;nan;101087.63;4984860;28;20085;-69
2022/11/29 04:04:10;;;;;;;52.40;23.98;;;;;;;-0.63;nan;101092.50;4983189;28;20050;-70
2022/11/29 04:06:35;;;;;;;49.00;23.15;;;;;;;-0.63;nan;101091.69;4983225;28;20043;-70
2022/11/29 04:09:19;;;;;;;55.88;23.27;;;;;;;-0.63;nan;101091.69;4967322;28;20088;-67
2022/11/29 04:11:53;;;;;;;58.05;23.63;;;;;;;-0.64;nan;101096.06;4983054;28;20448;-66
2022/11/29 04:14:34;;;;;;;52.60;22.52;;;;;;;-0.67;nan;101094.56;4977374;28;20397;-66
2022/11/29 04:17:34;;;;;;;54.72;21.92;;;;;;;-0.67;nan;101093.72;5030179;28;20483;-67
2022/11/29 04:20:25;;;;;;;50.00;20.60;;;;;;;-0.69;nan;101095.66;5048767;28;20032;-69
2022/11/29 04:23:02;;;;;;;52.13;21.80;;;;;;;-0.72;nan;101090.72;5042249;28;20052;-68
2022/11/29 04:25:52;;;;;;;55.45;21.40;;;;;;;-0.76;nan;101086.78;5031532;28;20035;-69
2022/11/29 04:28:36;;;;;;;45.60;20.48;;;;;;;-0.84;nan;101082.25;5041255;28;20017;-68
2022/11/29 04:31:27;;;;;;;47.67;20.30;;;;;;;-0.82;nan;101089.91;5028415;28;20028;-69
2022/11/29 04:34:32;;;;;;;47.53;20.05;;;;;;;-0.82;nan;101087.31;5041707;28;20072;-68
2022/11/29 04:37:14;;;;;;;46.67;21.02;;;;;;;-0.97;nan;101068.78;5037684;28;20076;-67
2022/11/29 04:40:14;;;;;;;48.15;21.23;;;;;;;-0.92;nan;101082.94;5038393;28;20058;-67
2022/11/29 04:43:14;;;;;;;42.95;20.08;;;;;;;-0.98;nan;101074.88;5037313;28;20032;-66
2022/11/29 04:46:10;;;;;;;43.63;19.67;;;;;;;-1.01;nan;101083.72;5038566;28;20114;-66
2022/11/29 04:48:57;;;;;;;46.70;20.70;;;;;;;-1.00;nan;101087.97;5042483;28;20025;-67
2022/11/29 04:52:17;;;;;;;48.33;20.83;;;;;;;-1.03;nan;101090.81;5038585;28;20125;-66
2022/11/29 04:55:13;;;;;;;51.85;21.20;;;;;;;-1.11;nan;101086.28;4978419;28;20052;-67
2022/11/29 04:58:10;;;;;;;50.05;20.83;;;;;;;-1.18;nan;101084.38;4989203;28;20182;-66
2022/11/29 05:00:49;;;;;;;50.10;20.23;;;;;;;-1.25;nan;101068.56;4982298;28;20041;-67
2022/11/29 05:03:46;;;;;;;47.95;20.65;;;;;;;-1.26;nan;101085.03;4984544;28;20101;-71
2022/11/29 05:06:27;;;;;;;56.20;22.20;;;;;;;-1.20;nan;101092.25;4944542;29;20106;-67
2022/11/29 05:09:14;;;;;;;48.85;21.88;;;;;;;-1.20;nan;101094.00;4948599;28;20584;-67
2022/11/29 05:11:42;;;;;;;54.05;21.52;;;;;;;-1.22;nan;101094.16;4947301;28;20042;-67
2022/11/29 05:14:52;;;;;;;52.58;21.67;;;;;;;-1.23;nan;101096.88;4948863;28;20066;-67
2022/11/29 05:17:24;;;;;;;56.33;22.30;;;;;;;-1.24;nan;101100.41;4930033;28;20043;-67
2022/11/29 05:19:52;;;;;;;54.42;21.92;;;;;;;-1.25;nan;101097.00;4949043;28;20041;-66
2022/11/29 05:22:44;;;;;;;49.78;20.88;;;;;;;-1.31;nan;101103.50;4930729;29;20032;-67
2022/11/29 05:25:25;;;;;;;56.30;21.52;;;;;;;-1.31;nan;101106.09;4931454;29;20027;-67
2022/11/29 05:27:59;;;;;;;51.28;21.25;;;;;;;-1.32;nan;101104.47;4951145;28;20497;-66
2022/11/29 05:30:48;;;;;;;50.42;21.20;;;;;;;-1.39;nan;101087.00;4965933;28;20047;-66
2022/11/29 05:33:26;;;;;;;50.03;22.02;;;;;;;-1.27;nan;101106.63;4969163;28;20035;-69
2022/11/29 05:35:59;;;;;;;58.80;22.85;;;;;;;-1.23;nan;101109.78;4968712;28;20449;-68
2022/11/29 05:38:33;;;;;;;54.33;21.35;;;;;;;-1.23;nan;101113.19;4948984;28;20053;-68
2022/11/29 05:41:10;;;;;;;56.05;22.25;;;;;;;-1.22;nan;101112.25;4967434;28;20034;-67
2022/11/29 05:44:30;;;;;;;55.40;21.50;;;;;;;-1.22;nan;101109.66;5014384;28;20052;-68
2022/11/29 05:46:59;;;;;;;51.20;22.75;;;;;;;-1.18;nan;101113.59;5042216;28;20049;-68
2022/11/29 05:49:32;;;;;;;53.95;21.77;;;;;;;-1.12;nan;101118.25;5047756;28;20029;-70
2022/11/29 05:52:25;;;;;;;56.08;22.88;;;;;;;-1.12;nan;101117.44;5024726;28;20048;-70
2022/11/29 05:55:18;;;;;;;58.42;23.10;;;;;;;-1.12;nan;101112.28;5043278;28;20101;-70
2022/11/29 05:58:07;;;;;;;55.40;23.05;;;;;;;-1.11;nan;101119.88;5030652;28;20124;-69
2022/11/29 06:00:48;;;;;;;52.60;21.95;;;;;;;-1.17;nan;101112.69;5038443;28;20104;-68
2022/11/29 06:03:34;;;;;;;55.10;23.42;;;;;;;-1.09;nan;101128.34;5020005;28;20036;-69
2022/11/29 06:06:07;;;;;;;54.65;23.25;;;;;;;-1.23;nan;101109.78;5043113;28;20029;-69
2022/11/29 06:08:51;;;;;;;59.45;24.80;;;;;;;-1.20;nan;101119.84;5042511;28;20421;-69
2022/11/29 06:11:35;;;;;;;59.20;24.67;;;;;;;-1.23;nan;101120.13;5045816;28;20517;-68
2022/11/29 06:14:13;;;;;;;62.00;24.38;;;;;;;-1.25;nan;101119.44;5044093;28;20103;-70
2022/11/29 06:17:24;;;;;;;58.53;23.73;;;;;;;-1.26;nan;101126.38;5044543;28;20113;-71
2022/11/29 06:20:22;;;;;;;57.65;24.50;;;;;;;-1.23;nan;101127.88;5039983;28;20029;-70
2022/11/29 06:23:09;;;;;;;61.30;26.17;;;;;;;-1.22;nan;101122.59;5044031;28;20052;-68
2022/11/29 06:25:56;;;;;;;64.43;25.95;;;;;;;-1.16;nan;101131.56;5039556;28;20025;-69
2022/11/29 06:28:27;;;;;;;71.43;28.60;;;;;;;-1.10;nan;101131.06;5040963;28;20031;-68
2022/11/29 06:31:15;;;;;;;82.47;32.33;;;;;;;-1.07;nan;101125.63;5039210;28;20703;-69
2022/11/29 06:33:49;;;;;;;74.95;30.02;;;;;;;-1.03;nan;101128.75;5040550;28;20607;-70
2022/11/29 06:36:34;;;;;;;70.45;28.67;;;;;;;-1.04;nan;101119.38;5039016;28;20022;-70
2022/11/29 06:39:00;;;;;;;74.43;29.42;;;;;;;-1.27;nan;101085.97;5037810;28;20036;-70
2022/11/29 06:41:26;;;;;;;71.60;29.45;;;;;;;-0.94;nan;101126.19;5037132;28;20441;-70
2022/11/29 06:43:51;;;;;;;75.90;30.52;;;;;;;-0.92;nan;101124.31;5045774;28;20035;-69
2022/11/29 06:47:02;;;;;;;102.53;33.38;;;;;;;-0.84;nan;101128.81;5038806;28;20074;-70
2022/11/29 06:49:32;;;;;;;82.85;31.70;;;;;;;-0.80;nan;101139.72;5035543;28;20040;-69
2022/11/29 06:52:00;;;;;;;84.63;32.55;;;;;;;-0.77;nan;101137.66;5039815;28;20033;-69
2022/11/29 06:54:35;;;;;;;138.68;41.78;;;;;;;-0.72;nan;101132.94;5040616;28;20079;-68
2022/11/29 06:57:22;;;;;;;141.60;43.83;;;;;;;-0.68;nan;101129.13;5038323;28;20021;-69
2022/11/29 06:59:53;;;;;;;108.57;37.10;;;;;;;-0.63;nan;101133.09;5042998;28;20036;-69
2022/11/29 07:02:40;;;;;;;80.47;32.88;;;;;;;-0.62;nan;101132.97;5037792;28;20037;-69
2022/11/29 07:05:27;;;;;;;67.70;29.52;;;;;;;-0.67;nan;101128.19;5044288;28;20509;-68
2022/11/29 07:07:55;;;;;;;65.55;26.98;;;;;;;-0.54;nan;101146.03;5042438;28;20029;-69
2022/11/29 07:10:22;;;;;;;60.67;26.80;;;;;;;-0.54;nan;101140.84;5036921;28;20371;-68
2022/11/29 07:12:49;;;;;;;62.72;25.92;;;;;;;-0.48;nan;101140.34;5047145;28;20147;-69
2022/11/29 07:15:20;;;;;;;58.95;25.75;;;;;;;-0.58;nan;101128.31;5045896;28;20024;-69
2022/11/29 07:18:10;;;;;;;64.93;28.85;;;;;;;-0.39;nan;101143.88;5041671;28;20476;-69
2022/11/29 07:20:47;;;;;;;66.88;27.75;;;;;;;-0.35;nan;101139.25;5046783;28;20078;-74
2022/11/29 07:23:35;;;;;;;65.40;26.30;;;;;;;-0.32;nan;101137.19;5050382;28;20083;-73
2022/11/29 07:26:04;;;;;;;61.53;24.77;;;;;;;-0.28;nan;101135.16;5030784;28;20056;-74
2022/11/29 07:28:45;;;;;;;64.28;27.92;;;;;;;-0.26;nan;101131.50;5035663;28;20651;-73
2022/11/29 07:31:29;;;;;;;70.30;32.17;;;;;;;-0.24;nan;101129.59;5052838;28;20056;-73
2022/11/29 07:34:14;;;;;;;78.47;31.00;;;;;;;-0.18;nan;101140.34;5031434;28;20132;-74
2022/11/29 07:37:01;;;;;;;66.25;26.50;;;;;;;-0.17;nan;101129.84;5038214;28;20048;-74
2022/11/29 07:40:00;;;;;;;58.50;25.25;;;;;;;-0.08;nan;101141.97;5047349;28;20081;-74
2022/11/29 07:42:48;;;;;;;;;;;;;;;-0.04;nan;101140.75;4991105;28;20045;-73
2022/11/29 07:45:23;;;;;;;60.40;26.75;;;;;;;0.03;nan;101135.84;4929977;29;19930;-73
2022/11/29 07:47:49;;;;;;;60.67;26.48;;;;;;;0.01;nan;101124.81;4929835;29;20043;-74
2022/11/29 07:50:15;;;;;;;58.92;24.75;;;;;;;0.06;nan;101121.78;4914880;29;20032;-75
2022/11/29 07:52:40;;;;;;;56.22;25.60;;;;;;;0.24;nan;101142.63;4936331;29;20035;-71
2022/11/29 07:55:06;;;;;;;55.03;24.70;;;;;;;0.25;nan;101137.31;4933180;29;20032;-70
2022/11/29 07:57:31;;;;;;;59.45;25.90;;;;;;;0.31;nan;101135.91;4934868;29;20046;-70
2022/11/29 07:59:57;;;;;;;71.88;28.20;;;;;;;0.34;nan;101148.63;4933088;29;20506;-69
2022/11/29 08:02:29;;;;;;;70.03;30.23;;;;;;;0.42;nan;101148.72;4931997;29;20439;-70
2022/11/29 08:04:54;;;;;;;68.38;30.38;;;;;;;0.38;nan;101121.44;4929869;29;20028;-69
2022/11/29 08:07:20;;;;;;;77.10;28.00;;;;;;;0.55;nan;101138.88;4934600;29;20039;-70
2022/11/29 08:09:45;;;;;;;63.05;27.05;;;;;;;0.60;nan;101130.69;4936761;29;20111;-70
2022/11/29 08:12:11;;;;;;;67.10;28.00;;;;;;;0.56;nan;101122.38;4914352;29;20143;-70
2022/11/29 08:14:36;;;;;;;64.90;27.45;;;;;;;0.71;nan;101129.69;4928528;29;20028;-71
2022/11/29 08:17:02;;;;;;;62.28;26.83;;;;;;;0.83;nan;101133.72;4933116;29;20032;-71
2022/11/29 08:19:27;;;;;;;58.20;23.98;;;;;;;0.85;nan;101129.22;4956286;28;20492;-70
2022/11/29 08:21:52;;;;;;;62.83;27.80;;;;;;;0.84;nan;101123.22;5007144;28;20040;-70
2022/11/29 08:24:18;;;;;;;64.13;27.00;;;;;;;0.97;nan;101122.88;5048248;28;20076;-70
2022/11/29 08:26:43;;;;;;;61.83;26.40;;;;;;;1.07;nan;101133.19;5027988;28;20174;-70
2022/11/29 08:29:08;;;;;;;57.40;23.92;;;;;;;1.19;nan;101136.41;5045855;28;20040;-70
2022/11/29 08:31:34;;;;;;;61.85;26.08;;;;;;;1.22;nan;101128.31;5046389;28;20029;-69
2022/11/29 08:33:59;;;;;;;60.45;27.17;;;;;;;1.27;nan;101126.13;5040562;28;20025;-70
2022/11/29 08:36:25;;;;;;;56.05;25.23;;;;;;;1.36;nan;101125.25;5032501;28;20533;-70
2022/11/29 08:38:50;;;;;;;55.53;24.88;;;;;;;1.37;nan;101115.69;5042503;28;20027;-70
2022/11/29 08:41:16;;;;;;;53.28;23.42;;;;;;;1.38;nan;101112.13;5042752;28;20029;-69
2022/11/29 08:43:42;;;;;;;50.33;23.25;;;;;;;1.60;nan;101131.63;5037940;28;20029;-69
2022/11/29 08:46:07;;;;;;;52.90;22.35;;;;;;;1.62;nan;101124.53;5032876;28;20387;-70
2022/11/29 08:48:34;;;;;;;49.88;23.40;;;;;;;1.69;nan;101120.38;5038421;28;20036;-70
2022/11/29 08:50:59;;;;;;;48.95;23.00;;;;;;;1.80;nan;101122.75;5045217;28;20575;-69
2022/11/29 08:53:40;;;;;;;46.63;22.40;;;;;;;1.97;nan;101133.28;5040862;28;20548;-70
2022/11/29 08:56:05;;;;;;;49.22;22.30;;;;;;;;;;5039712;28;20132;-70
2022/11/29 08:58:31;;;;;;;53.60;22.02;;;;;;;;;;5043026;28;20503;-69
2022/11/29 09:00:56;;;;;;;47.13;22.10;;;;;;;;;;5042081;28;20025;-69
2022/11/29 09:06:07;;;;;;;62.78;26.38;;;;;;;;;;5041046;28;20147;-69
2022/11/29 09:08:32;;;;;;;69.82;29.45;;;;;;;;;;5026955;28;20035;-69
2022/11/29 09:10:58;;;;;;;69.87;28.67;;;;;;;;;;5042957;28;20025;-70
2022/11/29 09:13:23;;;;;;;58.87;27.07;;;;;;;;;;5049833;28;20111;-70
2022/11/29 09:15:48;;;;;;;53.60;24.05;;;;;;;;;;5042477;28;20259;-70
2022/11/29 09:18:13;;;;;;;50.08;22.08;;;;;;;;;;5035295;28;20029;-69
2022/11/29 09:20:41;;;;;;;47.33;20.88;;;;;;;;;;5044586;28;20037;-69
2022/11/29 09:23:06;;;;;;;49.00;22.08;;;;;;;;;;5044651;28;20054;-70
2022/11/29 09:25:31;;;;;;;44.90;20.23;;;;;;;;;;5049290;28;20108;-70
2022/11/29 09:27:57;;;;;;;45.27;20.63;;;;;;;;;;5031444;28;20119;-69
2022/11/29 09:30:22;;;;;;;43.33;20.50;;;;;;;;;;5030922;28;20274;-70
2022/11/29 09:32:48;;;;;;;40.97;19.37;;;;;;;;;;5049940;28;20028;-69
2022/11/29 09:35:13;;;;;;;43.08;20.00;;;;;;;;;;5045239;28;20040;-69
2022/11/29 09:37:42;;;;;;;44.85;20.27;;;;;;;;;;5052183;28;20179;-70
2022/11/29 09:40:14;;;;;;;45.83;20.13;;;;;;;;;;5047949;28;20025;-70
2022/11/29 09:42:42;;;;;;;42.17;20.67;;;;;;;;;;5046984;28;20029;-69
2022/11/29 09:45:13;;;;;;;44.40;21.42;;;;;;;;;;5046588;28;20076;-70
2022/11/29 09:47:41;;;;;;;42.75;20.60;;;;;;;;;;5052114;28;20114;-69
2022/11/29 09:50:18;;;;;;;41.45;20.55;;;;;;;;;;5043902;28;20026;-70
2022/11/29 09:52:59;;;;;;;39.05;18.58;;;;;;;;;;5033795;28;20025;-69
2022/11/29 09:55:30;;;;;;;35.55;17.73;;;;;;;3.23;nan;101115.38;5042504;28;20033;-69
2022/11/29 09:57:58;;;;;;;40.35;17.80;;;;;;;3.25;nan;101101.25;5049265;28;20028;-70
2022/11/29 10:00:24;;;;;;;36.05;17.27;;;;;;;3.30;nan;101103.38;5045573;28;20031;-70
2022/11/29 10:03:01;;;;;;;38.42;19.00;;;;;;;3.30;nan;101090.34;5046760;28;20105;-70
2022/11/29 10:05:48;;;;;;;32.50;16.00;;;;;;;3.56;nan;101111.06;5046195;28;20029;-70
2022/11/29 10:08:35;;;;;;;33.78;16.63;;;;;;;3.60;nan;101099.34;5047982;28;20108;-70
2022/11/29 10:11:28;;;;;;;32.20;15.50;;;;;;;3.74;nan;101101.31;5043533;28;20053;-70
2022/11/29 10:14:01;;;;;;;33.75;15.68;;;;;;;3.73;nan;101091.06;5047319;28;20025;-68
2022/11/29 10:16:44;;;;;;;35.65;16.13;;;;;;;3.82;nan;101096.09;5045494;28;20017;-68
2022/11/29 10:19:28;;;;;;;37.92;15.98;;;;;;;3.97;nan;101100.66;5043000;28;20427;-69
2022/11/29 10:22:09;;;;;;;34.90;16.77;;;;;;;4.06;nan;101110.09;5045829;28;20029;-69
2022/11/29 10:24:37;;;;;;;31.98;15.95;;;;;;;3.85;nan;101058.47;5047274;28;20041;-69
2022/11/29 10:27:11;;;;;;;34.53;16.30;;;;;;;4.24;nan;101102.91;5047785;28;20108;-69
2022/11/29 10:29:37;;;;;;;33.05;16.95;;;;;;;;;;5046187;28;20080;-69
2022/11/29 10:32:07;;;;;;;37.10;16.13;;;;;;;;;;5027095;28;20549;-68
2022/11/29 10:34:32;;;;;;;38.83;16.75;;;;;;;;;;5048181;28;20576;-69
2022/11/29 10:36:58;;;;;;;34.95;17.55;;;;;;;;;;5043364;28;20021;-69
2022/11/29 10:39:41;;;;;;;33.08;16.10;;;;;;;;;;5049591;28;20430;-68
2022/11/29 10:42:47;;;;;;;33.58;15.88;;;;;;;;;;5047164;28;20029;-69
2022/11/29 10:44:57;;;;;;;30.95;15.70;;;;;;;;;;5048815;28;20035;-69
2022/11/29 10:47:22;;;;;;;31.23;15.70;;;;;;;;;;5051725;28;20025;-69
2022/11/29 10:49:47;;;;;;;32.80;15.17;;;;;;;;;;5049742;28;20021;-69
2022/11/29 10:52:20;;;;;;;32.83;15.97;;;;;;;;;;5035251;28;20028;-69
2022/11/29 10:54:46;;;;;;;31.58;15.20;;;;;;;;;;5050543;28;20032;-69
2022/11/29 10:57:13;;;;;;;32.78;14.55;;;;;;;;;;5046453;28;20013;-69
2022/11/29 10:59:38;;;;;;;30.35;15.13;;;;;;;;;;5046950;28;20387;-70
2022/11/29 11:02:14;;;;;;;30.57;14.43;;;;;;;;;;5048838;28;20025;-69
2022/11/29 11:04:43;;;;;;;29.45;14.88;;;;;;;;;;5045417;28;20257;-68
2022/11/29 11:07:09;;;;;;;;;;;;;;;;;;5048352;28;20020;-70
2022/11/29 11:09:41;;;;;;;30.10;15.02;;;;;;;;;;5049131;28;19935;-70
2022/11/29 11:12:15;;;;;;;31.05;15.73;;;;;;;;;;5048826;28;20390;-69
2022/11/29 11:14:41;;;;;;;29.95;14.98;;;;;;;;;;5052885;28;20132;-69
2022/11/29 11:17:25;;;;;;;30.77;15.20;;;;;;;;;;5048728;28;20103;-69
2022/11/29 11:19:53;;;;;;;31.02;15.20;;;;;;;;;;5048937;28;20024;-69
2022/11/29 11:22:20;;;;;;;32.38;15.77;;;;;;;;;;5047165;28;20386;-69
2022/11/29 11:24:46;;;;;;;31.63;15.50;;;;;;;;;;5049235;28;20024;-69
2022/11/29 11:27:11;;;;;;;33.45;16.13;;;;;;;;;;5033824;28;20539;-70
2022/11/29 11:29:38;;;;;;;30.92;14.88;;;;;;;;;;5045915;28;20028;-70
2022/11/29 11:32:03;;;;;;;36.17;16.92;;;;;;;;;;5043458;28;20033;-69
2022/11/29 11:34:32;;;;;;;37.58;17.73;;;;;;;;;;5048507;28;20107;-69
2022/11/29 11:37:13;;;;;;;32.97;15.65;;;;;;;;;;5026725;28;20044;-69
2022/11/29 11:39:39;;;;;;;33.85;17.55;;;;;;;;;;5048649;28;20021;-69
2022/11/29 11:44:51;;;;;;;31.67;15.48;;;;;;;;;;5042826;28;20039;-68
2022/11/29 11:47:26;;;;;;;35.00;17.05;;;;;;;;;;5044822;28;20521;-68
2022/11/29 11:49:51;;;;;;;33.83;15.27;;;;;;;;;;5026955;28;20041;-69
2022/11/29 11:52:21;;;;;;;50.00;21.87;;;;;;;;;;5048900;28;20028;-69
2022/11/29 11:54:51;;;;;;;53.63;22.33;;;;;;;;;;5045658;28;20029;-69
2022/11/29 11:57:17;;;;;;;30.08;15.63;;;;;;;;;;5046230;28;20017;-68
2022/11/29 11:59:46;;;;;;;30.65;14.63;;;;;;;;;;5042200;28;20398;-70
2022/11/29 12:02:28;;;;;;;27.00;13.97;;;;;;;;;;5029885;28;20124;-68
2022/11/29 12:04:56;;;;;;;31.52;16.13;;;;;;;;;;5047976;28;20029;-68
2022/11/29 12:07:26;;;;;;;25.30;13.90;;;;;;;;;;5027776;28;20458;-68
2022/11/29 12:09:56;;;;;;;30.25;14.55;;;;;;;;;;5044288;28;20566;-67
2022/11/29 12:12:26;;;;;;;25.38;12.80;;;;;;;;;;5043814;28;20076;-68
2022/11/29 12:15:04;;;;;;;28.90;12.88;;;;;;;;;;5048299;28;20599;-68
2022/11/29 12:17:29;;;;;;;25.70;13.45;;;;;;;;;;5042773;28;20506;-67
2022/11/29 12:20:00;;;;;;;27.17;13.77;;;;;;;;;;5036009;28;20025;-68
2022/11/29 12:22:29;;;;;;;25.25;13.52;;;;;;;;;;5045347;28;20040;-66
2022/11/29 12:24:57;;;;;;;25.43;13.03;;;;;;;;;;5049458;28;20477;-69
2022/11/29 12:27:23;;;;;;;27.02;13.68;;;;;;;;;;5042464;28;20960;-68
2022/11/29 12:29:48;;;;;;;23.37;13.10;;;;;;;;;;5029922;28;20043;-68
2022/11/29 12:32:40;;;;;;;27.83;13.70;;;;;;;;;;5041196;28;20274;-67
2022/11/29 12:35:24;;;;;;;28.13;12.82;;;;;;;;;;5037707;28;20475;-67
2022/11/29 12:38:10;;;;;;;23.13;12.63;;;;;;;;;;5039959;28;20100;-69
2022/11/29 12:40:58;;;;;;;21.67;12.45;;;;;;;;;;5043108;28;20064;-68
2022/11/29 12:43:42;;;;;;;29.95;12.85;;;;;;;;;;5043029;28;20391;-68
2022/11/29 12:46:11;;;;;;;29.08;13.30;;;;;;;;;;5046385;28;20626;-68
2022/11/29 12:48:57;;;;;;;31.08;14.13;;;;;;;;;;5051272;28;20029;-69
2022/11/29 12:51:25;;;;;;;28.05;13.82;;;;;;;;;;4991990;28;20060;-68